Time;durP1;ratioP1;P1;durP2;ratioP2;P2;SDS_P1;SDS_P2;PMS_P1;PMS_P2;Temp;Humidity;BMP_temperature;BMP_pressure;BME280_temperature;BME280_humidity;BME280_pressure;Samples;Min_cycle;Max_cycle;Signal;HPM_P1;HPM_P2
2021/11/14 00:00:13;;;;;;;129.20;65.80;;;;;;;1.75;78.80;100507.13;103087;1313;22692;-57
2021/11/14 00:03:05;;;;;;;136.10;66.60;;;;;;;1.70;78.75;100507.51;103087;1312;24235;-59
2021/11/14 00:05:38;;;;;;;138.60;66.30;;;;;;;1.69;78.75;100513.52;103091;1313;22637;-57
2021/11/14 00:08:09;;;;;;;126.80;64.00;;;;;;;1.65;78.73;100508.99;103208;1315;25252;-57
2021/11/14 00:10:42;;;;;;;136.10;67.90;;;;;;;1.63;78.70;100509.80;103264;1314;25281;-56
2021/11/14 00:13:14;;;;;;;134.40;64.00;;;;;;;1.60;78.68;100508.65;103138;1316;22706;-59
2021/11/14 00:15:46;;;;;;;140.20;67.30;;;;;;;1.56;78.56;100511.05;103055;1314;24373;-55
2021/11/14 00:18:18;;;;;;;136.80;63.50;;;;;;;1.53;78.54;100507.40;103213;1312;22630;-57
2021/11/14 00:20:50;;;;;;;132.90;66.10;;;;;;;1.51;78.51;100495.80;103113;1314;27502;-59
2021/11/14 00:23:21;;;;;;;139.60;67.60;;;;;;;1.45;78.36;100501.36;103063;1314;22569;-57
2021/11/14 00:25:53;;;;;;;127.80;61.20;;;;;;;1.40;78.45;100505.36;103164;1312;24330;-59
2021/11/14 00:28:24;;;;;;;123.40;60.50;;;;;;;1.36;78.34;100505.56;103010;1314;24302;-58
2021/11/14 00:30:55;;;;;;;122.00;59.90;;;;;;;1.31;78.13;100503.97;103168;1316;22560;-59
2021/11/14 00:33:27;;;;;;;122.50;60.80;;;;;;;1.25;78.12;100507.64;103144;1308;22600;-58
2021/11/14 00:35:58;;;;;;;129.20;60.60;;;;;;;1.20;78.21;100510.62;103155;1315;22647;-58
2021/11/14 00:38:29;;;;;;;124.00;58.00;;;;;;;1.18;78.40;100508.13;102954;1314;25540;-58
2021/11/14 00:40:59;;;;;;;118.50;59.50;;;;;;;1.17;78.45;100505.06;103067;1315;24270;-58
2021/11/14 00:43:31;;;;;;;124.80;62.60;;;;;;;1.14;78.19;100514.06;103189;1313;24336;-59
2021/11/14 00:46:02;;;;;;;124.60;59.50;;;;;;;1.10;78.31;100519.59;103215;1317;24241;-58
2021/11/14 00:48:33;;;;;;;131.40;61.40;;;;;;;1.06;78.47;100515.70;103230;1315;25419;-57
2021/11/14 00:51:04;;;;;;;129.50;62.00;;;;;;;1.05;78.41;100523.81;103684;1298;25522;-60
2021/11/14 00:53:35;;;;;;;134.10;63.20;;;;;;;1.03;78.46;100523.13;103221;1312;25529;-61
2021/11/14 00:56:08;;;;;;;128.50;61.20;;;;;;;1.02;78.47;100526.98;103178;1315;23160;-60
2021/11/14 00:58:39;;;;;;;137.40;63.50;;;;;;;1.01;78.53;100526.98;103374;1307;25295;-60
2021/11/14 01:01:10;;;;;;;129.60;61.70;;;;;;;0.99;78.26;100524.73;103232;1313;22633;-60
2021/11/14 01:03:41;;;;;;;139.50;63.30;;;;;;;0.96;78.29;100524.52;103320;1313;22577;-60
2021/11/14 01:06:12;;;;;;;135.70;66.00;;;;;;;0.92;78.18;100522.77;103178;1313;22545;-60
2021/11/14 01:08:43;;;;;;;128.80;64.30;;;;;;;0.88;78.23;100520.59;103211;1313;22588;-60
2021/11/14 01:11:15;;;;;;;128.80;63.00;;;;;;;0.86;78.26;100530.66;103294;1313;22589;-60
2021/11/14 01:13:47;;;;;;;119.80;57.30;;;;;;;0.84;78.43;100532.73;103231;1309;26839;-59
2021/11/14 01:16:21;;;;;;;131.80;61.70;;;;;;;0.79;78.33;100536.45;103188;1314;24206;-60
2021/11/14 01:18:52;;;;;;;118.70;58.90;;;;;;;0.75;78.54;100532.41;103287;1314;25501;-61
2021/11/14 01:21:27;;;;;;;135.80;62.20;;;;;;;0.73;78.63;100537.13;103215;1315;24294;-60
2021/11/14 01:24:00;;;;;;;135.80;60.90;;;;;;;0.71;78.66;100537.31;103330;1308;25412;-61
2021/11/14 01:26:31;;;;;;;137.20;62.80;;;;;;;0.68;78.55;100538.74;103266;1313;25467;-60
2021/11/14 01:29:03;;;;;;;133.00;60.80;;;;;;;0.66;78.59;100533.02;103106;1309;328937;-65
2021/11/14 01:31:34;;;;;;;143.50;64.00;;;;;;;0.63;78.67;100534.55;103146;1314;22555;-60
2021/11/14 01:34:05;;;;;;;139.90;63.30;;;;;;;0.60;78.68;100538.50;103221;1313;25631;-59
2021/11/14 01:36:36;;;;;;;132.10;58.60;;;;;;;0.57;78.84;100538.83;103214;1313;25414;-61
2021/11/14 01:39:09;;;;;;;153.60;62.00;;;;;;;0.58;78.87;100540.87;103182;1309;24000;-60
2021/11/14 01:41:40;;;;;;;155.50;64.60;;;;;;;0.54;78.88;100544.50;103204;1315;24294;-60
2021/11/14 01:44:13;;;;;;;151.60;62.90;;;;;;;0.52;78.92;100545.30;103181;1309;22666;-60
2021/11/14 01:46:45;;;;;;;145.60;62.20;;;;;;;0.50;78.92;100552.23;103575;1313;25469;-61
2021/11/14 01:49:16;;;;;;;136.10;56.20;;;;;;;0.47;78.80;100548.64;103327;1313;22671;-61
2021/11/14 01:51:47;;;;;;;130.90;57.70;;;;;;;0.42;78.63;100553.61;103410;1314;23144;-61
2021/11/14 01:54:19;;;;;;;121.40;53.70;;;;;;;0.36;78.60;100555.54;103172;1315;22673;-59
2021/11/14 01:56:50;;;;;;;151.00;62.10;;;;;;;0.31;78.77;100553.70;103414;1313;25339;-60
2021/11/14 01:59:22;;;;;;;145.40;57.50;;;;;;;0.25;78.96;100552.86;103366;1313;24303;-60
2021/11/14 02:01:53;;;;;;;143.90;60.40;;;;;;;0.16;79.16;100558.73;105361;1314;22616;-61
2021/11/14 02:04:24;;;;;;;144.20;61.00;;;;;;;0.13;79.34;100556.46;103264;1315;25219;-60
2021/11/14 02:06:56;;;;;;;148.40;62.30;;;;;;;0.09;79.35;100559.23;103446;1313;22781;-61
2021/11/14 02:09:27;;;;;;;143.50;62.60;;;;;;;0.03;79.38;100560.52;103342;1314;22576;-60
2021/11/14 02:11:59;;;;;;;142.20;59.10;;;;;;;-0.03;79.41;100560.23;103188;1309;24433;-60
2021/11/14 02:14:29;;;;;;;120.50;48.50;;;;;;;-0.11;79.32;100563.56;103320;1312;22590;-60
2021/11/14 02:17:01;;;;;;;121.90;48.80;;;;;;;-0.21;79.32;100569.64;103239;1313;25393;-60
2021/11/14 02:19:32;;;;;;;120.30;47.60;;;;;;;-0.32;79.41;100574.16;103283;1313;22564;-60
2021/11/14 02:22:04;;;;;;;100.10;48.00;;;;;;;-0.40;79.53;100578.65;103387;1313;22613;-60
2021/11/14 02:24:35;;;;;;;100.20;48.00;;;;;;;-0.44;79.79;100578.75;103300;1313;22562;-60
2021/11/14 02:27:07;;;;;;;103.00;47.90;;;;;;;-0.43;79.75;100581.55;103168;1314;25251;-60
2021/11/14 02:29:39;;;;;;;99.60;45.00;;;;;;;-0.40;79.87;100579.81;103313;1314;24256;-60
2021/11/14 02:32:12;;;;;;;97.00;44.40;;;;;;;-0.40;79.82;100578.41;103226;1313;22861;-60
2021/11/14 02:34:42;;;;;;;98.90;44.80;;;;;;;-0.43;79.65;100577.10;103467;1312;23945;-60
2021/11/14 02:37:13;;;;;;;99.20;44.40;;;;;;;-0.45;79.67;100580.78;103145;1314;26908;-60
2021/11/14 02:39:44;;;;;;;76.50;36.80;;;;;;;-0.49;79.78;100582.83;103574;1316;22637;-60
2021/11/14 02:42:16;;;;;;;82.00;39.80;;;;;;;-0.51;79.85;100588.88;103374;1314;25377;-60
2021/11/14 02:44:47;;;;;;;88.20;40.20;;;;;;;-0.53;79.72;100584.80;103217;1314;24298;-60
2021/11/14 02:47:18;;;;;;;90.50;42.80;;;;;;;-0.54;79.80;100585.98;103247;1315;22637;-60
2021/11/14 02:49:49;;;;;;;93.00;42.30;;;;;;;-0.54;79.74;100588.34;103133;1313;25516;-60
2021/11/14 02:52:21;;;;;;;87.90;43.90;;;;;;;-0.56;79.75;100590.13;103162;1314;22575;-59
2021/11/14 02:54:52;;;;;;;93.20;45.60;;;;;;;-0.56;79.83;100590.36;103216;1315;22567;-60
2021/11/14 02:57:22;;;;;;;109.90;53.40;;;;;;;-0.56;79.77;100587.78;103234;1310;24215;-60
2021/11/14 02:59:53;;;;;;;120.30;57.00;;;;;;;-0.54;79.68;100590.20;103285;1313;25249;-60
2021/11/14 03:02:24;;;;;;;124.70;59.00;;;;;;;-0.51;79.91;100595.38;103684;1313;25478;-60
2021/11/14 03:04:55;;;;;;;121.10;55.10;;;;;;;-0.46;79.96;100600.92;103270;1313;24297;-59
2021/11/14 03:07:26;;;;;;;134.40;55.80;;;;;;;-0.45;79.78;100600.30;103407;1313;24206;-60
2021/11/14 03:09:57;;;;;;;111.00;51.90;;;;;;;-0.46;79.67;100606.72;103430;1315;22587;-60
2021/11/14 03:12:28;;;;;;;106.40;50.90;;;;;;;-0.48;79.81;100607.98;103434;1313;25340;-61
2021/11/14 03:15:00;;;;;;;107.10;50.00;;;;;;;-0.48;79.86;100611.98;103361;1313;23279;-60
2021/11/14 03:17:31;;;;;;;105.90;49.30;;;;;;;-0.49;79.77;100611.43;103280;1310;23016;-60
2021/11/14 03:20:03;;;;;;;110.90;51.60;;;;;;;-0.51;79.76;100610.02;103282;1313;22637;-60
2021/11/14 03:22:37;;;;;;;118.80;55.00;;;;;;;-0.49;79.88;100618.10;103394;1314;23004;-60
2021/11/14 03:25:09;;;;;;;127.20;58.30;;;;;;;-0.52;79.78;100616.14;103295;1313;23606;-60
2021/11/14 03:27:40;;;;;;;122.80;56.70;;;;;;;-0.52;79.78;100616.85;103369;1313;22574;-60
2021/11/14 03:30:12;;;;;;;116.20;54.40;;;;;;;-0.54;79.64;100615.20;103222;1313;22722;-61
2021/11/14 03:32:43;;;;;;;115.20;55.70;;;;;;;-0.56;79.77;100614.82;103448;1313;22583;-60
2021/11/14 03:35:16;;;;;;;114.50;54.40;;;;;;;-0.59;79.73;100617.16;103180;1313;22536;-60
2021/11/14 03:37:47;;;;;;;121.40;57.30;;;;;;;-0.61;79.83;100617.56;103130;1313;24279;-60
2021/11/14 03:40:21;;;;;;;128.50;59.30;;;;;;;-0.63;79.87;100617.10;103383;1313;24304;-60
2021/11/14 03:42:52;;;;;;;128.10;57.60;;;;;;;-0.63;80.01;100624.46;103379;1316;22581;-60
2021/11/14 03:45:21;;;;;;;;;;;;;;;-0.62;80.10;100620.45;103174;1314;22627;-60
2021/11/14 03:47:52;;;;;;;131.00;56.40;;;;;;;-0.64;80.10;100618.66;103187;1313;25294;-60
2021/11/14 03:50:24;;;;;;;119.80;55.80;;;;;;;-0.67;80.12;100621.35;103199;1311;22636;-60
2021/11/14 03:52:55;;;;;;;120.00;54.60;;;;;;;-0.70;80.32;100621.98;103170;1313;22563;-60
2021/11/14 03:55:27;;;;;;;130.70;53.60;;;;;;;-0.71;80.37;100621.58;103307;1313;24175;-60
2021/11/14 03:57:58;;;;;;;156.20;62.10;;;;;;;-0.71;80.44;100622.76;103300;1313;22634;-61
2021/11/14 04:00:32;;;;;;;142.20;56.90;;;;;;;-0.73;80.56;100622.77;103335;1307;25364;-60
2021/11/14 04:03:04;;;;;;;138.80;53.40;;;;;;;-0.72;80.72;100623.93;103269;1309;23116;-60
2021/11/14 04:05:37;;;;;;;139.80;56.90;;;;;;;-0.71;80.94;100625.18;103217;1313;22590;-60
2021/11/14 04:08:12;;;;;;;118.80;53.00;;;;;;;-0.71;81.07;100627.38;103272;1313;24349;-60
2021/11/14 04:10:45;;;;;;;130.40;51.50;;;;;;;-0.72;80.98;100632.62;103244;1316;25066;-61
2021/11/14 04:13:16;;;;;;;139.50;54.60;;;;;;;-0.74;80.94;100635.67;103235;1309;22600;-59
2021/11/14 04:15:48;;;;;;;143.70;54.00;;;;;;;-0.79;81.10;100641.55;103414;1313;23106;-60
2021/11/14 04:18:19;;;;;;;129.40;50.40;;;;;;;-0.81;81.12;100643.13;103237;1313;22564;-60
2021/11/14 04:20:51;;;;;;;122.40;51.40;;;;;;;-0.79;81.20;100643.52;103240;1313;24408;-60
2021/11/14 04:23:23;;;;;;;138.20;52.20;;;;;;;-0.78;81.23;100646.33;103615;1309;22568;-60
2021/11/14 04:25:53;;;;;;;126.30;53.50;;;;;;;-0.79;81.24;100647.52;103373;1310;24423;-59
2021/11/14 04:28:25;;;;;;;129.50;51.40;;;;;;;-0.78;81.31;100650.25;103159;1309;23841;-60
2021/11/14 04:30:56;;;;;;;134.30;56.00;;;;;;;-0.78;81.39;100649.78;103186;1313;22606;-60
2021/11/14 04:33:27;;;;;;;131.60;52.60;;;;;;;-0.79;81.46;100650.09;103269;1313;22669;-60
2021/11/14 04:35:58;;;;;;;130.50;53.60;;;;;;;-0.78;81.49;100654.55;103282;1309;22612;-59
2021/11/14 04:38:29;;;;;;;125.20;52.70;;;;;;;-0.77;81.49;100658.70;103368;1308;22570;-60
2021/11/14 04:41:00;;;;;;;114.20;51.50;;;;;;;-0.76;81.58;100656.67;103349;1315;25585;-60
2021/11/14 04:43:31;;;;;;;126.50;52.30;;;;;;;-0.75;81.69;100656.36;103275;1313;22637;-60
2021/11/14 04:46:02;;;;;;;125.80;54.20;;;;;;;-0.75;81.70;100654.55;103287;1310;22909;-60
2021/11/14 04:48:33;;;;;;;122.00;53.50;;;;;;;-0.74;81.69;100657.69;103272;1309;25576;-60
2021/11/14 04:51:05;;;;;;;122.50;53.00;;;;;;;-0.72;81.82;100660.90;103297;1309;23033;-60
2021/11/14 04:53:37;;;;;;;106.20;46.60;;;;;;;-0.71;81.93;100661.69;103335;1307;23308;-60
2021/11/14 04:56:08;;;;;;;105.90;48.00;;;;;;;-0.70;81.82;100662.39;103261;1311;25936;-60
2021/11/14 04:58:39;;;;;;;100.80;47.40;;;;;;;-0.68;81.98;100660.98;103210;1309;22811;-60
2021/11/14 05:01:10;;;;;;;101.30;45.90;;;;;;;-0.66;82.03;100664.50;103387;1313;22749;-60
2021/11/14 05:03:41;;;;;;;108.30;48.80;;;;;;;-0.65;82.11;100663.02;103368;1313;24852;-60
2021/11/14 05:06:13;;;;;;;104.10;45.70;;;;;;;-0.63;82.29;100662.69;103241;1309;23986;-59
2021/11/14 05:08:44;;;;;;;107.00;49.20;;;;;;;-0.61;82.36;100663.48;103240;1308;25469;-60
2021/11/14 05:11:16;;;;;;;111.20;48.20;;;;;;;-0.59;82.29;100672.02;103306;1310;23016;-60
2021/11/14 05:13:47;;;;;;;120.60;49.30;;;;;;;-0.59;82.33;100674.20;103237;1309;24243;-60
2021/11/14 05:16:19;;;;;;;112.30;46.70;;;;;;;-0.59;82.46;100673.27;103301;1309;24254;-58
2021/11/14 05:18:51;;;;;;;112.60;48.80;;;;;;;-0.58;82.57;100677.89;103359;1315;23145;-59
2021/11/14 05:21:22;;;;;;;120.80;50.40;;;;;;;-0.56;82.64;100682.66;103255;1313;24231;-60
2021/11/14 05:23:53;;;;;;;115.00;48.50;;;;;;;-0.54;82.76;100683.84;103372;1308;22636;-60
2021/11/14 05:26:23;;;;;;;121.20;49.70;;;;;;;-0.53;82.84;100686.81;103438;1311;25707;-60
2021/11/14 05:28:54;;;;;;;118.90;49.50;;;;;;;-0.49;82.90;100689.71;103212;1313;22637;-60
2021/11/14 05:31:26;;;;;;;119.50;50.30;;;;;;;-0.47;83.03;100694.17;103349;1309;22581;-61
2021/11/14 05:33:57;;;;;;;106.60;46.50;;;;;;;-0.45;83.15;100696.45;103393;1315;22665;-62
2021/11/14 05:36:29;;;;;;;112.00;48.90;;;;;;;-0.43;83.12;100708.12;103261;1313;22643;-61
2021/11/14 05:39:01;;;;;;;125.90;54.20;;;;;;;-0.40;83.39;100709.36;103287;1309;23097;-61
2021/11/14 05:41:32;;;;;;;121.50;47.20;;;;;;;-0.38;83.16;100707.09;103402;1309;22664;-61
2021/11/14 05:44:04;;;;;;;111.90;47.70;;;;;;;-0.39;83.37;100710.22;103344;1313;22569;-61
2021/11/14 05:46:35;;;;;;;121.50;51.60;;;;;;;-0.37;83.37;100717.91;103171;1309;22584;-60
2021/11/14 05:49:09;;;;;;;115.50;50.30;;;;;;;-0.35;83.56;100716.66;103390;1312;22755;-61
2021/11/14 05:51:40;;;;;;;115.30;47.30;;;;;;;-0.33;83.59;100716.50;103593;1307;22568;-61
2021/11/14 05:54:12;;;;;;;126.30;50.80;;;;;;;-0.30;83.61;100718.61;103198;1309;25594;-61
2021/11/14 05:56:43;;;;;;;129.50;49.40;;;;;;;-0.28;83.72;100717.90;103392;1313;25646;-62
2021/11/14 05:59:21;;;;;;;122.30;48.20;;;;;;;-0.28;83.60;100729.41;103287;1313;22747;-61
2021/11/14 06:01:57;;;;;;;114.00;46.80;;;;;;;-0.28;83.55;100732.25;103491;1309;24215;-61
2021/11/14 06:04:32;;;;;;;118.20;49.80;;;;;;;-0.28;83.68;100738.13;103284;1313;25851;-61
2021/11/14 06:07:04;;;;;;;121.50;51.60;;;;;;;-0.27;83.68;100745.10;103355;1313;22761;-61
2021/11/14 06:09:35;;;;;;;111.70;48.50;;;;;;;-0.26;83.73;100746.83;103270;1309;22625;-61
2021/11/14 06:12:08;;;;;;;122.90;50.10;;;;;;;-0.25;83.67;100747.21;103365;1313;22571;-61
2021/11/14 06:14:39;;;;;;;124.60;52.00;;;;;;;-0.24;83.75;100754.65;103371;1308;23212;-61
2021/11/14 06:17:10;;;;;;;112.80;47.00;;;;;;;-0.23;83.76;100760.14;103190;1309;24260;-60
2021/11/14 06:19:41;;;;;;;111.20;45.30;;;;;;;-0.22;83.72;100763.75;103160;1309;22607;-61
2021/11/14 06:22:12;;;;;;;107.30;46.60;;;;;;;-0.20;83.80;100769.70;103173;1315;22561;-61
2021/11/14 06:24:43;;;;;;;106.80;46.80;;;;;;;-0.19;83.74;100772.84;103385;1313;22607;-61
2021/11/14 06:27:14;;;;;;;114.20;48.20;;;;;;;-0.18;83.84;100781.70;103252;1309;22574;-61
2021/11/14 06:29:45;;;;;;;124.90;49.70;;;;;;;-0.17;83.88;100782.42;103246;1309;22772;-61
2021/11/14 06:32:16;;;;;;;113.10;49.70;;;;;;;-0.16;83.92;100791.81;103325;1309;23033;-61
2021/11/14 06:34:47;;;;;;;114.20;47.70;;;;;;;-0.17;83.89;100796.59;103258;1312;22637;-61
2021/11/14 06:37:18;;;;;;;106.50;46.80;;;;;;;-0.18;83.81;100802.95;103214;1313;22589;-61
2021/11/14 06:39:48;;;;;;;107.90;47.70;;;;;;;-0.21;83.81;100803.42;103376;1314;22807;-61
2021/11/14 06:42:20;;;;;;;108.10;42.30;;;;;;;-0.22;83.87;100807.25;103248;1314;22571;-61
2021/11/14 06:44:51;;;;;;;104.30;39.30;;;;;;;-0.24;83.93;100813.62;103241;1309;25556;-61
2021/11/14 06:47:22;;;;;;;96.60;38.00;;;;;;;-0.26;83.96;100810.64;103154;1309;22574;-61
2021/11/14 06:49:53;;;;;;;111.40;41.90;;;;;;;-0.31;83.97;100813.45;103481;1309;26913;-61
2021/11/14 06:52:25;;;;;;;109.20;43.60;;;;;;;-0.35;83.97;100817.77;103581;1300;22600;31
2021/11/14 06:54:56;;;;;;;110.80;41.40;;;;;;;-0.39;84.02;100823.79;103194;1316;24257;-58
2021/11/14 06:57:27;;;;;;;95.80;40.10;;;;;;;-0.43;84.13;100826.85;103084;1309;23035;-57
2021/11/14 06:59:57;;;;;;;95.20;40.20;;;;;;;-0.46;84.16;100831.31;103104;1311;22589;-58
2021/11/14 07:02:29;;;;;;;96.00;41.00;;;;;;;-0.46;84.32;100832.73;103117;1312;23073;-57
2021/11/14 07:05:00;;;;;;;119.00;41.50;;;;;;;-0.43;84.54;100833.59;102837;1311;22582;-58
2021/11/14 07:07:31;;;;;;;101.00;41.70;;;;;;;-0.41;84.43;100840.02;103207;1310;22614;-57
2021/11/14 07:10:02;;;;;;;102.80;43.40;;;;;;;-0.41;84.43;100839.23;103015;1316;22581;-57
2021/11/14 07:12:33;;;;;;;106.70;42.30;;;;;;;-0.41;84.36;100845.81;103095;1316;25638;-57
2021/11/14 07:15:05;;;;;;;112.90;45.40;;;;;;;-0.42;84.43;100844.95;103235;1312;25527;-56
2021/11/14 07:17:36;;;;;;;99.30;41.20;;;;;;;-0.45;84.40;100844.32;103650;1311;22701;-58
2021/11/14 07:20:10;;;;;;;94.10;41.50;;;;;;;-0.49;84.35;100847.14;103206;1311;22745;-58
2021/11/14 07:22:44;;;;;;;105.40;42.90;;;;;;;-0.51;84.53;100845.56;103192;1316;22597;-57
2021/11/14 07:25:19;;;;;;;101.70;42.20;;;;;;;-0.46;84.73;100852.55;103009;1311;22661;-58
2021/11/14 07:27:53;;;;;;;110.20;45.80;;;;;;;-0.43;84.78;100854.98;103284;1315;22583;-58
2021/11/14 07:30:26;;;;;;;107.20;40.80;;;;;;;-0.42;84.72;100857.95;103200;1316;22753;-57
2021/11/14 07:32:58;;;;;;;123.70;42.10;;;;;;;-0.45;84.63;100860.08;103110;1316;25516;-58
2021/11/14 07:35:29;;;;;;;105.60;40.30;;;;;;;-0.46;84.74;100860.15;103056;1314;25555;-58
2021/11/14 07:38:01;;;;;;;111.50;41.10;;;;;;;-0.46;84.92;100865.02;102921;1311;27001;-57
2021/11/14 07:40:32;;;;;;;119.50;41.10;;;;;;;-0.46;84.91;100864.62;103240;1311;22582;-58
2021/11/14 07:43:04;;;;;;;93.20;38.20;;;;;;;-0.45;85.03;100862.42;103201;1316;22580;-56
2021/11/14 07:45:34;;;;;;;88.70;37.40;;;;;;;-0.43;85.22;100860.46;103126;1316;24454;-59
2021/11/14 07:48:07;;;;;;;97.00;39.70;;;;;;;-0.39;85.41;100867.67;103120;1310;23128;-59
2021/11/14 07:50:39;;;;;;;93.60;36.80;;;;;;;-0.34;85.47;100866.28;103226;1310;25577;-58
2021/11/14 07:53:10;;;;;;;91.60;36.20;;;;;;;-0.31;85.32;100869.11;103058;1310;25535;-59
2021/11/14 07:55:41;;;;;;;82.70;34.00;;;;;;;-0.29;85.52;100866.44;102730;1311;25111;-58
2021/11/14 07:58:12;;;;;;;76.70;34.50;;;;;;;-0.23;85.86;100867.70;102830;1313;24112;-59
2021/11/14 08:00:43;;;;;;;85.90;34.90;;;;;;;-0.16;85.90;100866.84;102745;1315;24323;-58
2021/11/14 08:03:14;;;;;;;92.10;37.30;;;;;;;-0.11;85.94;100864.33;102830;1317;22636;-59
2021/11/14 08:05:46;;;;;;;82.90;33.80;;;;;;;-0.05;86.10;100864.10;102898;1315;23633;-58
2021/11/14 08:08:17;;;;;;;77.10;31.90;;;;;;;-0.01;86.06;100870.23;102839;1317;22598;-58
2021/11/14 08:10:48;;;;;;;74.60;29.90;;;;;;;0.05;86.03;100871.23;103099;1313;25552;-55
2021/11/14 08:13:20;;;;;;;74.00;29.70;;;;;;;0.09;86.06;100873.28;102752;1315;22696;-56
2021/11/14 08:15:52;;;;;;;84.50;32.30;;;;;;;0.15;86.04;100877.98;103016;1317;22578;-58
2021/11/14 08:18:23;;;;;;;69.20;28.20;;;;;;;0.20;86.03;100882.92;102875;1315;22669;-58
2021/11/14 08:20:54;;;;;;;78.20;29.70;;;;;;;0.21;86.01;100886.68;102813;1311;22593;-56
2021/11/14 08:23:26;;;;;;;80.60;30.70;;;;;;;0.23;86.17;100888.88;102720;1315;25590;-58
2021/11/14 08:25:58;;;;;;;69.20;28.40;;;;;;;0.29;86.34;100892.34;102891;1318;22559;-58
2021/11/14 08:28:30;;;;;;;71.40;28.10;;;;;;;0.36;86.29;100894.44;102831;1311;22584;-56
2021/11/14 08:31:00;;;;;;;64.20;27.40;;;;;;;0.36;85.88;100898.98;102858;1319;24427;-57
2021/11/14 08:33:33;;;;;;;74.70;28.50;;;;;;;0.36;85.98;100901.42;102733;1311;24341;-59
2021/11/14 08:36:05;;;;;;;76.80;32.00;;;;;;;0.38;86.06;100907.21;102827;1311;22645;-59
2021/11/14 08:38:36;;;;;;;74.80;27.40;;;;;;;0.40;86.24;100908.41;102826;1315;23123;-58
2021/11/14 08:41:08;;;;;;;76.50;31.00;;;;;;;0.42;85.95;100909.35;102996;1311;22684;-58
2021/11/14 08:43:40;;;;;;;71.70;33.50;;;;;;;0.41;86.04;100915.95;102806;1312;25526;-58
2021/11/14 08:46:13;;;;;;;63.00;25.40;;;;;;;0.48;86.58;100920.55;102854;1311;22568;-57
2021/11/14 08:48:44;;;;;;;83.90;35.50;;;;;;;0.51;86.20;100926.12;102827;1318;22624;-58
2021/11/14 08:51:15;;;;;;;71.80;28.90;;;;;;;0.52;86.26;100935.07;102615;1314;22580;-56
2021/11/14 08:53:46;;;;;;;75.30;32.00;;;;;;;0.50;86.20;100931.46;102874;1315;22588;-58
2021/11/14 08:56:17;;;;;;;81.00;35.30;;;;;;;0.51;86.43;100929.10;103011;1310;24596;-54
2021/11/14 08:58:48;;;;;;;80.80;35.00;;;;;;;0.57;86.67;100936.89;103068;1314;22637;-55
2021/11/14 09:01:19;;;;;;;87.30;37.60;;;;;;;0.65;86.83;100942.52;103034;1311;22561;-59
2021/11/14 09:03:50;;;;;;;85.80;36.10;;;;;;;0.74;86.90;100948.85;103506;1312;23457;-58
2021/11/14 09:06:21;;;;;;;77.40;35.10;;;;;;;0.81;87.01;100951.60;103051;1310;22574;-58
2021/11/14 09:08:54;;;;;;;79.30;35.50;;;;;;;0.87;86.77;100961.40;103076;1311;22557;-58
2021/11/14 09:11:26;;;;;;;78.00;33.30;;;;;;;0.92;86.86;100964.05;103129;1311;22585;-59
2021/11/14 09:13:57;;;;;;;79.20;33.60;;;;;;;0.98;86.79;100964.75;102943;1312;22965;-58
2021/11/14 09:16:28;;;;;;;74.50;35.40;;;;;;;0.99;86.65;100965.22;102951;1311;23827;-58
2021/11/14 09:19:00;;;;;;;77.40;33.40;;;;;;;1.04;86.82;100963.80;103085;1311;22617;-58
2021/11/14 09:21:31;;;;;;;75.10;30.50;;;;;;;1.10;86.69;100963.30;103389;1313;22651;-59
2021/11/14 09:24:02;;;;;;;77.70;33.40;;;;;;;1.15;86.75;100966.20;103012;1311;22574;-58
2021/11/14 09:26:33;;;;;;;81.30;34.20;;;;;;;1.19;86.73;100971.99;103106;1312;22651;-58
2021/11/14 09:29:05;;;;;;;72.10;32.40;;;;;;;1.23;86.67;100972.93;102790;1313;384352;-58
2021/11/14 09:31:37;;;;;;;79.20;31.30;;;;;;;1.26;86.74;100974.02;103102;1312;22591;-59
2021/11/14 09:34:08;;;;;;;82.00;33.00;;;;;;;1.27;86.83;100971.27;103270;1312;22610;-59
2021/11/14 09:36:39;;;;;;;78.40;35.10;;;;;;;1.33;87.17;100976.20;103177;1312;23910;-62
2021/11/14 09:39:13;;;;;;;88.20;37.10;;;;;;;1.42;87.33;100971.98;103068;1311;25397;-59
2021/11/14 09:41:47;;;;;;;90.50;38.10;;;;;;;1.50;87.51;100972.44;103074;1311;25603;-59
2021/11/14 09:44:20;;;;;;;83.50;37.40;;;;;;;1.56;87.48;100977.05;103110;1311;24239;-59
2021/11/14 09:46:53;;;;;;;93.00;39.90;;;;;;;1.65;87.44;100978.81;103205;1311;22554;-59
2021/11/14 09:49:27;;;;;;;87.60;35.90;;;;;;;1.73;87.49;100978.61;103076;1309;25444;-60
2021/11/14 09:52:01;;;;;;;85.80;37.30;;;;;;;1.77;87.21;100976.47;103184;1312;22568;-60
2021/11/14 09:54:33;;;;;;;101.70;43.30;;;;;;;1.82;87.36;100982.02;103460;1310;26103;-61
2021/11/14 09:57:08;;;;;;;101.30;42.20;;;;;;;1.90;87.52;100983.08;103533;1310;22804;-58
2021/11/14 09:59:39;;;;;;;88.90;40.20;;;;;;;1.98;87.58;100979.10;103635;1313;22577;-62
2021/11/14 10:02:11;;;;;;;92.00;38.40;;;;;;;2.05;87.26;100977.64;103466;1311;25573;-59
2021/11/14 10:04:42;;;;;;;104.80;43.60;;;;;;;2.12;87.31;100977.75;103638;1311;24859;-58
2021/11/14 10:07:17;;;;;;;89.30;37.30;;;;;;;2.17;87.58;100982.52;103637;1313;22512;-59
2021/11/14 10:09:52;;;;;;;95.60;38.60;;;;;;;2.18;87.58;100982.19;103158;1311;22577;-59
2021/11/14 10:12:25;;;;;;;87.70;37.80;;;;;;;2.21;87.58;100983.04;103143;1311;24240;-60
2021/11/14 10:15:11;;;;;;;98.90;41.10;;;;;;;2.25;87.80;100987.41;103288;1311;22588;-59
2021/11/14 10:17:48;;;;;;;96.50;41.20;;;;;;;2.32;87.89;100984.29;103387;1311;24296;-59
2021/11/14 10:20:23;;;;;;;95.80;38.60;;;;;;;2.40;87.93;100985.50;103170;1313;26938;-58
2021/11/14 10:22:56;;;;;;;84.70;35.10;;;;;;;2.43;87.71;100991.05;103307;1309;22652;-59
2021/11/14 10:25:28;;;;;;;95.30;38.20;;;;;;;2.42;87.55;100995.16;103233;1311;23318;-59
2021/11/14 10:28:01;;;;;;;104.60;42.00;;;;;;;2.41;87.65;100991.86;103275;1311;22563;-59
2021/11/14 10:30:34;;;;;;;105.00;46.40;;;;;;;2.47;87.82;100998.44;103438;1313;22637;-63
2021/11/14 10:33:07;;;;;;;83.60;34.80;;;;;;;2.55;88.01;100997.17;103375;1314;22569;-61
2021/11/14 10:35:41;;;;;;;100.20;42.40;;;;;;;2.58;87.81;100999.52;103380;1311;22579;-59
2021/11/14 10:38:15;;;;;;;83.90;37.50;;;;;;;2.60;87.78;101002.98;103408;1311;27108;-60
2021/11/14 10:40:49;;;;;;;95.80;42.20;;;;;;;2.65;87.76;101004.65;103375;1312;25709;-62
2021/11/14 10:43:22;;;;;;;99.80;43.90;;;;;;;2.70;87.90;101002.72;103458;1313;22602;-60
2021/11/14 10:45:58;;;;;;;94.20;39.20;;;;;;;2.76;88.02;100999.90;103302;1313;23137;-61
2021/11/14 10:48:33;;;;;;;94.40;38.60;;;;;;;2.81;87.95;101003.49;103516;1311;25559;-61
2021/11/14 10:51:07;;;;;;;89.70;39.40;;;;;;;2.85;87.88;101006.15;103367;1311;22561;-60
2021/11/14 10:53:38;;;;;;;86.10;36.30;;;;;;;2.89;87.84;101007.59;103337;1312;22584;-59
2021/11/14 10:56:11;;;;;;;98.30;40.10;;;;;;;2.94;87.76;101010.46;103160;1311;22593;-62
2021/11/14 10:58:43;;;;;;;83.10;36.20;;;;;;;3.00;87.53;101009.23;103248;1312;24606;-60
2021/11/14 11:01:16;;;;;;;93.30;39.70;;;;;;;3.03;87.39;101009.42;103063;1312;22592;-60
2021/11/14 11:03:50;;;;;;;86.40;37.90;;;;;;;3.05;87.54;101011.85;103139;1313;24396;-59
2021/11/14 11:06:25;;;;;;;95.50;40.00;;;;;;;3.09;87.53;101008.17;103282;1315;22576;-61
2021/11/14 11:09:00;;;;;;;90.50;40.50;;;;;;;3.12;87.61;101009.73;103437;1311;24234;-61
2021/11/14 11:11:31;;;;;;;96.70;42.10;;;;;;;3.15;87.58;101008.20;103193;1312;22580;-61
2021/11/14 11:14:02;;;;;;;102.40;46.20;;;;;;;3.22;87.66;101012.86;103199;1313;24279;-61
2021/11/14 11:16:34;;;;;;;109.10;44.90;;;;;;;3.29;87.69;101010.10;103157;1311;22602;-60
2021/11/14 11:19:09;;;;;;;99.50;43.70;;;;;;;3.33;87.50;101004.70;103163;1315;23098;-61